Aérodrome :
LOGIN :

S'inscrire | Disclaimer

   EN    FR    IT 

 










Légende :    VFR   VFR Marginal   IFR   IFR Intensif   IFR Très Intensif
Visi : 
Plafond : 
>= 8 km
>= 3000ft
5 à 8 km
1000 à 3000 ft
1500m à 5 km
500 à 1000 ft
800 à 1500m
200 à 500 ft
< 800m
< 200 ft
Symboles :   Orages  Brouillard  Fortes neiges  Fortes précipitations  Vent > 20 kt
SIGMETs :   Divers  Orages  Givrage  Turbulence  Onde Orograph.  Cendres Volcan.






- Altitude de l'aérodrome : 1400 ft


LSME - Luzern Emmen

DERNIER METAR :
  • 171120Z 19006KT 150V230 9999 -SHRA SCT029 SCT034 BKN047 05/03 Q1012 RMK BLU

METARs EXPIRÉS :
  • 171050Z 23007KT 9999 -RA FEW015 SCT020 BKN045 04/03 Q1012 RMK BLU
  • 171020Z AUTO 24008KT 210V280 9999NDV -RA SCT015 BKN019 04/03 Q1012 RMK
  • 170950Z 24008KT 210V280 9999 -RA FEW015 BKN020 BKN026 04/03 Q1012 RERA RMK WHT
  • 170920Z 23010KT 5000 SHRA FEW016 BKN020 04/03 Q1012 RMK WHT
  • 170850Z 26009KT 210V280 9999 SHRA FEW016 SCT018 BKN024 05/03 Q1012 RMK WHT
  • 170750Z 26008KT 9999 -RA FEW026 BKN032 06/02 Q1011 RMK BLU
  • 170720Z 25007KT 210V280 9999 -RA FEW019 BKN022 BKN039 05/03 Q1011 RMK WHT
  • 170650Z 25008KT 8000 -SHRA FEW018 SCT024 OVC032 05/02 Q1011 RMK BLU

Prévision TAF périmée.



MET'MAP, la Météo Aéronautique d'un coup d'oeil ! - Copyright ORBIFLY Décembre 2007 - Disclaimer

ORBIFLY MET'MAP TEAM :

Programmation & Développement : Alexandra Zaïnal
Sur une idée originale de : Baudouin d'Aumeries
Soutien technique & logistique : Manuel Goepfert
Assistance : Marc-Olivier Méhu




SOURCES & CREDITS :

   NOAA